createdAt,value
2022-10-09T00:01:16.311Z,7.50
2022-10-09T00:02:18.061Z,7.20
2022-10-09T00:03:19.939Z,7.03
2022-10-09T00:04:22.037Z,6.90
2022-10-09T00:05:26.894Z,6.72
2022-10-09T00:06:32.525Z,6.55
2022-10-09T00:07:34.373Z,7.50
2022-10-09T00:08:39.491Z,7.50
2022-10-09T00:09:41.363Z,7.50
2022-10-09T00:10:43.999Z,6.82
2022-10-09T00:11:45.847Z,7.18
2022-10-09T00:12:48.387Z,7.80
2022-10-09T00:13:51.652Z,7.13
2022-10-09T00:14:53.339Z,8.10
2022-10-09T00:15:55.179Z,7.65
2022-10-09T00:16:57.136Z,8.77
2022-10-09T00:17:59.047Z,9.68
2022-10-09T00:19:00.956Z,9.23
2022-10-09T00:20:03.420Z,8.40
2022-10-09T00:21:06.417Z,8.05
2022-10-09T00:22:08.238Z,7.78
2022-10-09T00:23:12.089Z,7.72
2022-10-09T00:24:13.912Z,7.78
2022-10-09T00:25:15.885Z,7.63
2022-10-09T00:26:18.326Z,7.60
2022-10-09T00:27:23.140Z,6.90
2022-10-09T00:28:27.370Z,8.20
2022-10-09T00:29:29.248Z,6.70
2022-10-09T00:30:31.607Z,7.57
2022-10-09T00:31:33.728Z,7.72
2022-10-09T00:32:35.557Z,7.85
2022-10-09T00:33:37.840Z,7.03
2022-10-09T00:34:39.770Z,7.00
2022-10-09T00:35:41.918Z,7.57
2022-10-09T00:36:43.786Z,7.07
2022-10-09T00:37:45.643Z,6.72
2022-10-09T00:38:48.059Z,7.30
2022-10-09T00:39:50.144Z,7.30
2022-10-09T00:40:52.294Z,6.80
2022-10-09T00:41:54.167Z,6.82
2022-10-09T00:42:57.444Z,7.10
2022-10-09T00:44:20.255Z,7.72
2022-10-09T00:45:22.771Z,6.82
2022-10-09T00:46:35.382Z,6.40
2022-10-09T00:47:44.421Z,6.55
2022-10-09T00:48:48.476Z,6.03
2022-10-09T00:49:53.547Z,6.75
2022-10-09T00:50:58.258Z,6.75
2022-10-09T00:52:04.970Z,6.55
2022-10-09T00:53:07.785Z,6.95
2022-10-09T00:54:13.239Z,6.25
2022-10-09T00:55:15.323Z,6.50
2022-10-09T00:56:17.472Z,6.05
2022-10-09T00:57:19.984Z,6.80
2022-10-09T00:58:22.938Z,6.28
2022-10-09T00:59:25.904Z,6.05
2022-10-09T01:00:27.991Z,6.53
2022-10-09T01:01:29.875Z,6.55
2022-10-09T01:02:31.698Z,6.50
2022-10-09T01:03:33.581Z,6.07
2022-10-09T01:04:35.701Z,6.35
2022-10-09T01:06:14.791Z,6.68
2022-10-09T01:07:39.632Z,7.03
2022-10-09T01:08:55.763Z,6.22
2022-10-09T01:10:21.396Z,6.35
2022-10-09T01:11:41.348Z,7.03
2022-10-09T01:13:07.450Z,6.50
2022-10-09T01:14:17.104Z,6.60
2022-10-09T01:15:20.779Z,6.45
2022-10-09T01:16:31.480Z,6.70
2022-10-09T01:17:39.698Z,6.95
2022-10-09T01:19:17.007Z,6.50
2022-10-09T01:20:35.315Z,6.07
2022-10-09T01:22:18.272Z,6.50
2022-10-09T01:23:30.300Z,6.30
2022-10-09T01:24:47.961Z,6.13
2022-10-09T01:25:58.310Z,6.35
2022-10-09T01:27:04.227Z,6.20
2022-10-09T01:28:07.871Z,6.38
2022-10-09T01:29:11.607Z,7.60
2022-10-09T01:30:13.715Z,6.93
2022-10-09T01:32:46.387Z,6.40
2022-10-09T01:33:49.787Z,7.03
2022-10-09T01:34:53.483Z,6.45
2022-10-09T01:35:56.103Z,6.55
2022-10-09T01:36:59.254Z,6.70
2022-10-09T01:38:02.737Z,7.40
2022-10-09T01:39:06.915Z,6.38
2022-10-09T01:40:10.533Z,6.47
2022-10-09T01:41:12.227Z,5.95
2022-10-09T01:42:15.784Z,6.60
2022-10-09T01:43:17.618Z,6.50
2022-10-09T01:44:22.155Z,7.38
2022-10-09T01:45:24.064Z,5.68
2022-10-09T01:46:29.743Z,6.03
2022-10-09T01:47:31.695Z,5.70
2022-10-09T01:48:33.899Z,5.22
2022-10-09T01:49:43.931Z,5.10
2022-10-09T01:50:51.552Z,6.13
2022-10-09T01:52:17.239Z,5.55
2022-10-09T01:53:21.135Z,5.30
2022-10-09T01:54:46.626Z,5.18
2022-10-09T01:56:01.518Z,5.05
2022-10-09T01:57:06.201Z,4.93
2022-10-09T01:58:42.095Z,8.93
2022-10-09T01:59:47.532Z,5.50
2022-10-09T02:01:05.300Z,5.25
2022-10-09T02:02:08.812Z,5.25
2022-10-09T02:03:14.020Z,5.72
2022-10-09T02:04:17.539Z,5.60
2022-10-09T02:05:26.425Z,5.32
2022-10-09T02:06:32.192Z,6.75
2022-10-09T02:07:35.109Z,7.25
2022-10-09T02:08:39.447Z,8.70
2022-10-09T02:09:41.320Z,10.10
2022-10-09T02:10:45.027Z,11.68
2022-10-09T02:11:54.738Z,10.73
2022-10-09T02:12:59.967Z,11.35
2022-10-09T02:14:02.310Z,12.00
2022-10-09T02:15:04.962Z,16.92
2022-10-09T02:16:23.382Z,17.23
2022-10-09T02:17:30.076Z,14.23
2022-10-09T02:18:45.559Z,15.00
2022-10-09T02:19:55.276Z,15.48
2022-10-09T02:21:01.100Z,12.35
2022-10-09T02:22:23.890Z,14.80
2022-10-09T02:23:27.117Z,15.05
2022-10-09T02:24:29.418Z,19.92
2022-10-09T02:25:31.877Z,17.08
2022-10-09T02:26:34.119Z,11.02
2022-10-09T02:27:36.544Z,14.65
2022-10-09T02:28:42.595Z,14.68
2022-10-09T02:29:48.922Z,10.15
2022-10-09T02:31:03.823Z,9.32
2022-10-09T02:32:05.931Z,9.43
2022-10-09T02:33:09.160Z,8.05
2022-10-09T02:34:14.250Z,5.97
2022-10-09T02:35:17.659Z,6.68
2022-10-09T02:36:19.518Z,9.70
2022-10-09T02:37:21.763Z,6.57
2022-10-09T02:38:25.093Z,6.47
2022-10-09T02:39:27.190Z,6.78
2022-10-09T02:40:29.097Z,5.35
2022-10-09T02:41:30.894Z,5.80
2022-10-09T02:42:32.807Z,7.10
2022-10-09T02:43:35.130Z,6.55
2022-10-09T02:44:37.071Z,5.95
2022-10-09T02:45:39.002Z,4.53
2022-10-09T02:46:41.005Z,5.07
2022-10-09T02:47:42.956Z,4.13
2022-10-09T02:48:45.426Z,5.15
2022-10-09T02:49:47.328Z,5.15
2022-10-09T02:50:49.279Z,5.13
2022-10-09T02:51:51.655Z,4.57
2022-10-09T02:52:53.524Z,4.40
2022-10-09T02:53:55.879Z,4.55
2022-10-09T02:54:57.773Z,5.00
2022-10-09T02:55:59.748Z,4.65
2022-10-09T02:57:01.733Z,4.28
2022-10-09T02:58:03.685Z,4.30
2022-10-09T02:59:05.712Z,5.05
2022-10-09T03:00:08.629Z,5.00
2022-10-09T03:01:10.642Z,4.50
2022-10-09T03:02:12.631Z,5.35
2022-10-09T03:03:15.230Z,4.68
2022-10-09T03:04:17.207Z,4.60
2022-10-09T03:05:19.061Z,4.90
2022-10-09T03:06:26.574Z,4.55
2022-10-09T03:07:28.467Z,4.70
2022-10-09T03:08:30.768Z,4.45
2022-10-09T03:09:33.816Z,4.75
2022-10-09T03:10:38.902Z,4.53
2022-10-09T03:11:40.760Z,4.43
2022-10-09T03:12:42.615Z,4.78
2022-10-09T03:13:44.942Z,5.05
2022-10-09T03:14:47.068Z,4.50
2022-10-09T03:15:49.418Z,5.10
2022-10-09T03:16:54.330Z,4.30
2022-10-09T03:17:56.531Z,4.22
2022-10-09T03:18:58.769Z,3.97
2022-10-09T03:20:01.098Z,3.63
2022-10-09T03:21:07.277Z,4.20
2022-10-09T03:22:09.574Z,4.43
2022-10-09T03:23:12.420Z,3.83
2022-10-09T03:24:14.305Z,4.10
2022-10-09T03:25:16.228Z,3.95
2022-10-09T03:26:20.635Z,3.90
2022-10-09T03:27:24.117Z,4.22
2022-10-09T03:28:26.699Z,3.58
2022-10-09T03:29:28.632Z,4.10
2022-10-09T03:30:31.259Z,4.07
2022-10-09T03:31:51.315Z,3.95
2022-10-09T03:32:54.162Z,3.92
2022-10-09T03:33:56.053Z,4.13
2022-10-09T03:34:58.285Z,4.10
2022-10-09T03:36:00.552Z,3.72
2022-10-09T03:37:02.763Z,3.97
2022-10-09T03:38:04.670Z,3.80
2022-10-09T03:39:06.923Z,3.45
2022-10-09T03:40:09.424Z,3.60
2022-10-09T03:41:11.299Z,3.90
2022-10-09T03:42:13.209Z,3.90
2022-10-09T03:43:15.364Z,3.70
2022-10-09T03:44:17.649Z,3.78
2022-10-09T03:45:19.523Z,3.92
2022-10-09T03:46:21.572Z,3.78
2022-10-09T03:47:23.492Z,3.67
2022-10-09T03:48:26.157Z,3.92
2022-10-09T03:49:28.016Z,3.65
2022-10-09T03:50:29.893Z,3.60
2022-10-09T03:51:31.813Z,3.50
2022-10-09T03:52:33.623Z,3.10
2022-10-09T03:53:35.801Z,3.28
2022-10-09T03:54:37.617Z,3.22
2022-10-09T03:55:40.365Z,3.45
2022-10-09T03:56:42.365Z,3.53
2022-10-09T03:57:44.264Z,3.60
2022-10-09T03:58:46.563Z,3.30
2022-10-09T03:59:48.496Z,3.75
2022-10-09T04:00:51.780Z,3.35
2022-10-09T04:01:53.974Z,3.55
2022-10-09T04:02:55.950Z,3.10
2022-10-09T04:03:57.844Z,3.22
2022-10-09T04:04:59.868Z,3.15
2022-10-09T04:06:03.171Z,3.63
2022-10-09T04:07:05.248Z,3.13
2022-10-09T04:08:07.238Z,3.42
2022-10-09T04:09:09.541Z,3.67
2022-10-09T04:10:11.953Z,3.30
2022-10-09T04:11:13.852Z,3.83
2022-10-09T04:12:16.222Z,3.65
2022-10-09T04:13:17.972Z,3.20
2022-10-09T04:14:19.835Z,3.03
2022-10-09T04:15:21.693Z,3.33
2022-10-09T04:16:23.852Z,3.70
2022-10-09T04:17:25.833Z,3.20
2022-10-09T04:18:27.704Z,2.90
2022-10-09T04:19:29.583Z,3.17
2022-10-09T04:20:31.699Z,2.67
2022-10-09T04:21:33.997Z,3.05
2022-10-09T04:22:35.869Z,3.25
2022-10-09T04:23:37.986Z,2.75
2022-10-09T04:24:40.085Z,2.70
2022-10-09T04:25:43.034Z,2.80
2022-10-09T04:26:45.166Z,2.85
2022-10-09T04:27:47.323Z,3.60
2022-10-09T04:28:49.788Z,3.08
2022-10-09T04:29:51.689Z,3.50
2022-10-09T04:30:53.620Z,2.90
2022-10-09T04:31:55.438Z,3.53
2022-10-09T04:32:57.577Z,2.72
2022-10-09T04:33:59.592Z,3.15
2022-10-09T04:35:01.889Z,2.90
2022-10-09T04:36:03.910Z,3.20
2022-10-09T04:37:05.721Z,3.10
2022-10-09T04:38:07.583Z,3.08
2022-10-09T04:39:09.996Z,3.47
2022-10-09T04:40:12.186Z,3.17
2022-10-09T04:41:14.130Z,2.80
2022-10-09T04:42:16.001Z,2.63
2022-10-09T04:43:17.888Z,2.75
2022-10-09T04:44:19.672Z,2.85
2022-10-09T04:45:21.583Z,3.15
2022-10-09T04:46:24.098Z,3.45
2022-10-09T04:47:25.932Z,2.88
2022-10-09T04:48:27.940Z,2.70
2022-10-09T04:49:29.763Z,2.72
2022-10-09T04:50:31.585Z,2.90
2022-10-09T04:51:33.511Z,2.55
2022-10-09T04:52:35.403Z,2.78
2022-10-09T04:53:38.144Z,2.50
2022-10-09T04:54:40.670Z,2.72
2022-10-09T04:55:48.194Z,2.70
2022-10-09T04:56:53.287Z,2.67
2022-10-09T04:57:56.741Z,2.70
2022-10-09T04:58:58.975Z,3.00
2022-10-09T05:00:00.847Z,3.40
2022-10-09T05:01:17.250Z,2.42
2022-10-09T05:02:19.202Z,2.70
2022-10-09T05:03:21.082Z,2.42
2022-10-09T05:04:23.046Z,2.67
2022-10-09T05:05:24.897Z,2.88
2022-10-09T05:06:26.727Z,2.85
2022-10-09T05:07:28.691Z,2.75
2022-10-09T05:08:32.038Z,2.50
2022-10-09T05:09:34.163Z,2.70
2022-10-09T05:10:36.103Z,2.65
2022-10-09T05:11:42.359Z,2.65
2022-10-09T05:12:44.672Z,2.53
2022-10-09T05:13:48.892Z,2.60
2022-10-09T05:14:50.803Z,2.70
2022-10-09T05:15:52.890Z,2.83
2022-10-09T05:17:12.978Z,3.10
2022-10-09T05:18:15.728Z,2.70
2022-10-09T05:19:17.595Z,3.30
2022-10-09T05:20:19.488Z,2.85
2022-10-09T05:21:22.860Z,2.85
2022-10-09T05:22:25.066Z,2.88
2022-10-09T05:23:27.767Z,2.88
2022-10-09T05:24:29.729Z,3.28
2022-10-09T05:25:31.554Z,2.83
2022-10-09T05:26:33.496Z,2.90
2022-10-09T05:27:35.307Z,2.80
2022-10-09T05:28:37.350Z,2.75
2022-10-09T05:29:39.238Z,2.80
2022-10-09T05:30:42.352Z,2.70
2022-10-09T05:31:49.069Z,2.50
2022-10-09T05:32:51.698Z,2.92
2022-10-09T05:33:55.135Z,2.22
2022-10-09T05:34:56.803Z,2.95
2022-10-09T05:36:03.463Z,2.30
2022-10-09T05:37:05.362Z,2.53
2022-10-09T05:38:07.317Z,2.78
2022-10-09T05:39:09.629Z,2.78
2022-10-09T05:40:11.824Z,2.35
2022-10-09T05:41:17.365Z,2.17
2022-10-09T05:42:19.271Z,2.72
2022-10-09T05:43:24.059Z,2.95
2022-10-09T05:44:26.011Z,2.60
2022-10-09T05:45:27.999Z,2.75
2022-10-09T05:46:30.607Z,2.50
2022-10-09T05:47:32.460Z,3.08
2022-10-09T05:48:34.574Z,2.75
2022-10-09T05:49:36.432Z,2.67
2022-10-09T05:50:38.255Z,2.70
2022-10-09T05:51:43.119Z,2.35
2022-10-09T05:52:45.100Z,2.15
2022-10-09T05:53:48.038Z,2.33
2022-10-09T05:54:50.391Z,2.67
2022-10-09T05:55:54.333Z,2.50
2022-10-09T05:56:56.398Z,2.28
2022-10-09T05:57:58.604Z,2.30
2022-10-09T05:59:06.273Z,1.98
2022-10-09T06:00:08.917Z,2.88
2022-10-09T06:01:11.151Z,2.22
2022-10-09T06:02:13.110Z,2.40
2022-10-09T06:03:14.976Z,2.08
2022-10-09T06:04:20.293Z,2.05
2022-10-09T06:05:22.463Z,1.88
2022-10-09T06:06:27.823Z,1.98
2022-10-09T06:07:31.006Z,2.00
2022-10-09T06:08:34.270Z,1.60
2022-10-09T06:09:39.660Z,2.17
2022-10-09T06:10:43.947Z,2.20
2022-10-09T06:11:49.391Z,2.10
2022-10-09T06:13:10.230Z,2.00
2022-10-09T06:14:30.693Z,2.33
2022-10-09T06:15:33.171Z,1.92
2022-10-09T06:16:40.546Z,1.80
2022-10-09T06:17:42.439Z,2.30
2022-10-09T06:18:49.805Z,1.80
2022-10-09T06:19:51.824Z,1.95
2022-10-09T06:20:59.284Z,1.67
2022-10-09T06:22:01.256Z,2.30
2022-10-09T06:23:08.584Z,1.95
2022-10-09T06:24:29.504Z,1.88
2022-10-09T06:25:31.865Z,2.20
2022-10-09T06:26:34.469Z,2.00
2022-10-09T06:27:36.755Z,1.77
2022-10-09T06:28:41.834Z,2.28
2022-10-09T06:29:46.593Z,2.13
2022-10-09T06:30:49.833Z,2.30
2022-10-09T06:31:56.095Z,1.92
2022-10-09T06:32:57.958Z,2.05
2022-10-09T06:34:15.295Z,2.10
2022-10-09T06:35:17.188Z,1.98
2022-10-09T06:36:25.312Z,1.98
2022-10-09T06:37:27.274Z,1.88
2022-10-09T06:38:29.286Z,2.53
2022-10-09T06:39:31.174Z,2.03
2022-10-09T06:40:37.280Z,1.90
2022-10-09T06:41:39.437Z,2.25
2022-10-09T06:42:41.722Z,2.00
2022-10-09T06:43:47.944Z,1.70
2022-10-09T06:44:49.833Z,2.22
2022-10-09T06:45:52.643Z,1.90
2022-10-09T06:46:55.578Z,1.90
2022-10-09T06:47:58.044Z,1.92
2022-10-09T06:49:00.993Z,1.70
2022-10-09T06:50:02.871Z,2.60
2022-10-09T06:51:23.760Z,2.13
2022-10-09T06:52:25.689Z,2.00
2022-10-09T06:53:30.370Z,2.38
2022-10-09T06:54:35.815Z,2.08
2022-10-09T06:55:39.311Z,1.63
2022-10-09T06:56:43.600Z,1.85
2022-10-09T06:57:50.882Z,2.10
2022-10-09T06:58:58.438Z,2.35
2022-10-09T07:00:04.700Z,2.17
2022-10-09T07:01:26.996Z,2.05
2022-10-09T07:02:29.031Z,1.95
2022-10-09T07:05:34.481Z,2.08
2022-10-09T07:06:56.321Z,2.00
2022-10-09T07:08:04.871Z,1.55
2022-10-09T07:09:10.396Z,1.60
2022-10-09T07:10:14.278Z,1.77
2022-10-09T07:11:45.980Z,1.80
2022-10-09T07:12:55.888Z,2.10
2022-10-09T07:14:12.686Z,1.88
2022-10-09T07:15:33.429Z,1.63
2022-10-09T07:16:42.491Z,1.17
2022-10-09T07:17:52.263Z,1.83
2022-10-09T07:19:21.988Z,1.75
2022-10-09T07:20:53.356Z,1.60
2022-10-09T07:22:28.261Z,1.70
2022-10-09T07:23:37.472Z,1.83
2022-10-09T07:24:49.273Z,2.58
2022-10-09T07:26:09.608Z,1.80
2022-10-09T07:27:38.449Z,2.35
2022-10-09T07:29:22.913Z,1.75
2022-10-09T07:30:34.077Z,1.83
2022-10-09T07:31:47.662Z,2.15
2022-10-09T07:32:53.113Z,1.75
2022-10-09T07:33:56.689Z,1.65
2022-10-09T07:35:03.146Z,1.35
2022-10-09T07:36:08.348Z,1.85
2022-10-09T07:37:13.081Z,1.48
2022-10-09T07:38:17.465Z,1.40
2022-10-09T07:39:25.005Z,1.60
2022-10-09T07:40:27.377Z,1.70
2022-10-09T07:41:30.797Z,1.50
2022-10-09T07:42:34.170Z,1.60
2022-10-09T07:43:38.714Z,1.25
2022-10-09T07:44:41.394Z,1.60
2022-10-09T07:45:47.520Z,1.50
2022-10-09T07:46:52.264Z,1.50
2022-10-09T07:47:54.166Z,1.55
2022-10-09T07:49:00.214Z,1.52
2022-10-09T07:50:02.752Z,1.75
2022-10-09T07:51:25.006Z,1.17
2022-10-09T07:52:30.367Z,1.98
2022-10-09T07:53:35.958Z,1.20
2022-10-09T07:54:38.144Z,1.13
2022-10-09T07:55:46.671Z,1.40
2022-10-09T07:56:49.614Z,1.35
2022-10-09T07:57:51.563Z,1.70
2022-10-09T07:58:58.809Z,1.00
2022-10-09T08:00:02.211Z,2.05
2022-10-09T08:01:06.861Z,1.20
2022-10-09T08:02:09.696Z,1.15
2022-10-09T08:03:11.916Z,1.48
2022-10-09T08:04:16.607Z,1.08
2022-10-09T08:05:18.788Z,1.35
2022-10-09T08:06:26.037Z,1.00
2022-10-09T08:07:31.409Z,1.48
2022-10-09T08:08:36.875Z,1.42
2022-10-09T08:09:40.117Z,1.67
2022-10-09T08:10:42.138Z,1.65
2022-10-09T08:11:44.720Z,1.60
2022-10-09T08:12:53.073Z,1.40
2022-10-09T08:13:55.703Z,0.90
2022-10-09T08:14:57.483Z,0.90
2022-10-09T08:15:59.917Z,1.60
2022-10-09T08:17:01.959Z,1.10
2022-10-09T08:18:04.071Z,1.40
2022-10-09T08:19:06.329Z,1.10
2022-10-09T08:20:09.380Z,1.00
2022-10-09T08:21:14.395Z,1.35
2022-10-09T08:22:16.182Z,1.40
2022-10-09T08:23:18.043Z,2.15
2022-10-09T08:24:20.235Z,1.70
2022-10-09T08:25:22.065Z,1.35
2022-10-09T08:26:25.272Z,1.20
2022-10-09T08:27:27.575Z,1.13
2022-10-09T08:28:29.539Z,1.17
2022-10-09T08:29:34.587Z,1.10
2022-10-09T08:30:38.373Z,1.35
2022-10-09T08:31:40.567Z,1.05
2022-10-09T08:32:42.788Z,1.30
2022-10-09T08:33:45.433Z,1.38
2022-10-09T08:34:47.708Z,1.20
2022-10-09T08:35:50.173Z,1.13
2022-10-09T08:36:52.064Z,1.15
2022-10-09T08:37:53.785Z,1.52
2022-10-09T08:38:55.860Z,1.15
2022-10-09T08:39:57.751Z,1.38
2022-10-09T08:41:05.629Z,1.33
2022-10-09T08:42:07.526Z,1.33
2022-10-09T08:43:15.947Z,1.10
2022-10-09T08:44:19.942Z,1.30
2022-10-09T08:45:22.297Z,0.98
2022-10-09T08:46:31.300Z,0.90
2022-10-09T08:47:46.479Z,1.05
2022-10-09T08:48:50.135Z,1.20
2022-10-09T08:50:09.479Z,1.00
2022-10-09T08:51:24.025Z,1.25
2022-10-09T08:52:41.655Z,1.02
2022-10-09T08:53:52.225Z,0.90
2022-10-09T08:54:57.342Z,1.13
2022-10-09T08:56:03.138Z,1.13
2022-10-09T08:57:12.757Z,1.00
2022-10-09T08:58:17.512Z,0.88
2022-10-09T08:59:19.513Z,1.40
2022-10-09T09:00:28.218Z,0.88
2022-10-09T09:01:41.153Z,0.80
2022-10-09T09:03:15.298Z,1.08
2022-10-09T09:04:27.516Z,1.02
2022-10-09T09:05:39.561Z,1.10
2022-10-09T09:06:58.328Z,0.90
2022-10-09T09:08:22.130Z,1.20
2022-10-09T09:09:41.704Z,1.13
2022-10-09T09:10:53.077Z,1.17
2022-10-09T09:12:12.077Z,1.17
2022-10-09T09:13:27.474Z,1.33
2022-10-09T09:14:54.996Z,1.00
2022-10-09T09:16:23.212Z,1.45
2022-10-09T09:17:40.309Z,1.20
2022-10-09T09:18:52.955Z,1.10
2022-10-09T09:20:16.816Z,1.65
2022-10-09T09:21:36.086Z,1.50
2022-10-09T09:22:42.835Z,1.05
2022-10-09T09:23:48.065Z,1.27
2022-10-09T09:24:53.327Z,1.25
2022-10-09T09:25:56.408Z,1.17
2022-10-09T09:27:04.476Z,1.27
2022-10-09T09:28:31.766Z,0.90
2022-10-09T09:29:41.423Z,0.98
2022-10-09T09:30:56.095Z,1.25
2022-10-09T09:32:00.790Z,0.93
2022-10-09T09:33:11.923Z,1.13
2022-10-09T09:35:33.325Z,0.82
2022-10-09T09:36:42.732Z,1.05
2022-10-09T09:37:44.875Z,0.95
2022-10-09T09:39:24.914Z,1.00
2022-10-09T09:40:36.621Z,0.80
2022-10-09T09:41:39.685Z,1.10
2022-10-09T09:42:42.461Z,1.30
2022-10-09T09:43:44.338Z,0.95
2022-10-09T09:45:00.364Z,0.90
2022-10-09T09:46:02.664Z,1.10
2022-10-09T09:47:04.795Z,0.85
2022-10-09T09:48:29.729Z,1.15
2022-10-09T09:49:31.464Z,1.10
2022-10-09T09:51:10.163Z,1.38
2022-10-09T09:52:01.153Z,1.10
2022-10-09T09:53:07.756Z,1.27
2022-10-09T09:54:20.332Z,1.33
2022-10-09T09:55:27.879Z,1.48
2022-10-09T09:57:10.306Z,1.35
2022-10-09T09:58:07.661Z,1.48
2022-10-09T09:59:26.902Z,1.73
2022-10-09T10:00:28.854Z,1.48
2022-10-09T10:01:31.796Z,1.38
2022-10-09T10:02:33.720Z,1.17
2022-10-09T10:03:36.485Z,0.95
2022-10-09T10:04:48.392Z,1.23
2022-10-09T10:05:50.540Z,1.20
2022-10-09T10:06:52.258Z,1.00
2022-10-09T10:07:54.486Z,0.90
2022-10-09T10:09:18.079Z,1.23
2022-10-09T10:10:25.606Z,1.30
2022-10-09T10:11:28.797Z,0.95
2022-10-09T10:12:30.546Z,1.17
2022-10-09T10:13:39.491Z,2.63
2022-10-09T10:14:50.415Z,1.40
2022-10-09T10:15:55.197Z,0.85
2022-10-09T10:16:59.407Z,0.90
2022-10-09T10:18:13.951Z,0.77
2022-10-09T10:19:22.845Z,1.00
2022-10-09T10:20:25.232Z,1.00
2022-10-09T10:21:26.979Z,1.13
2022-10-09T10:22:29.818Z,1.65
2022-10-09T10:23:34.399Z,1.80
2022-10-09T10:24:43.316Z,1.35
2022-10-09T10:25:45.199Z,1.17
2022-10-09T10:26:59.114Z,1.30
2022-10-09T10:28:11.084Z,1.00
2022-10-09T10:29:19.844Z,1.70
2022-10-09T10:30:21.552Z,0.80
2022-10-09T10:31:35.900Z,1.05
2022-10-09T10:32:47.637Z,1.10
2022-10-09T10:33:55.145Z,1.23
2022-10-09T10:35:26.319Z,1.45
2022-10-09T10:36:28.864Z,1.23
2022-10-09T10:37:54.504Z,0.80
2022-10-09T10:39:08.262Z,0.90
2022-10-09T10:40:54.172Z,1.05
2022-10-09T10:42:01.644Z,0.80
2022-10-09T10:43:38.261Z,0.82
2022-10-09T10:44:49.316Z,0.90
2022-10-09T10:46:13.395Z,0.88
2022-10-09T10:47:21.576Z,0.80
2022-10-09T10:48:32.486Z,1.00
2022-10-09T10:49:34.527Z,1.10
2022-10-09T10:50:52.704Z,0.82
2022-10-09T10:52:06.714Z,0.95
2022-10-09T10:53:20.470Z,0.80
2022-10-09T10:54:32.695Z,0.80
2022-10-09T10:56:02.757Z,0.80
2022-10-09T10:57:24.658Z,1.00
2022-10-09T10:58:51.249Z,0.70
2022-10-09T11:00:00.453Z,0.93
2022-10-09T11:01:02.654Z,1.02
2022-10-09T11:02:14.489Z,0.70
2022-10-09T11:03:36.803Z,0.63
2022-10-09T11:04:50.725Z,1.17
2022-10-09T11:06:07.219Z,0.93
2022-10-09T11:07:27.407Z,0.70
2022-10-09T11:09:07.169Z,0.60
2022-10-09T11:10:22.073Z,0.80
2022-10-09T11:11:34.147Z,0.80
2022-10-09T11:12:58.861Z,0.88
2022-10-09T11:14:26.144Z,1.00
2022-10-09T11:15:48.625Z,0.90
2022-10-09T11:17:28.542Z,0.77
2022-10-09T11:18:59.504Z,0.65
2022-10-09T11:20:20.153Z,0.77
2022-10-09T11:21:52.049Z,0.80
2022-10-09T11:22:58.906Z,0.90
2022-10-09T11:24:39.152Z,0.90
2022-10-09T11:26:00.337Z,0.88
2022-10-09T11:28:33.099Z,0.88
2022-10-09T11:29:43.774Z,0.77
2022-10-09T11:30:55.572Z,1.00
2022-10-09T11:32:04.323Z,0.80
2022-10-09T11:33:38.681Z,1.20
2022-10-09T11:34:52.592Z,0.90
2022-10-09T11:36:12.595Z,1.20
2022-10-09T11:37:31.266Z,0.93
2022-10-09T11:38:51.970Z,0.70
2022-10-09T11:39:55.109Z,0.90
2022-10-09T11:40:58.604Z,0.80
2022-10-09T11:42:01.350Z,0.90
2022-10-09T11:43:25.335Z,1.02
2022-10-09T11:44:38.311Z,0.70
2022-10-09T11:45:53.309Z,0.70
2022-10-09T11:47:09.833Z,0.60
2022-10-09T11:48:50.973Z,0.85
2022-10-09T11:50:16.365Z,0.80
2022-10-09T11:51:53.066Z,0.70
2022-10-09T11:53:19.923Z,0.82
2022-10-09T11:54:23.992Z,0.70
2022-10-09T11:55:32.458Z,1.13
2022-10-09T11:56:35.303Z,0.73
2022-10-09T11:57:37.262Z,0.85
2022-10-09T11:58:40.862Z,0.70
2022-10-09T11:59:43.243Z,0.80
2022-10-09T12:00:48.088Z,1.05
2022-10-09T12:01:52.039Z,1.10
2022-10-09T12:03:00.681Z,1.45
2022-10-09T12:04:11.025Z,1.00
2022-10-09T12:05:31.816Z,0.82
2022-10-09T12:06:50.087Z,0.90
2022-10-09T12:07:54.570Z,0.60
2022-10-09T12:09:07.967Z,0.63
2022-10-09T12:10:28.053Z,0.65
2022-10-09T12:12:37.894Z,0.65
2022-10-09T12:13:41.135Z,0.60
2022-10-09T12:14:46.192Z,0.80
2022-10-09T12:15:50.995Z,0.80
2022-10-09T12:16:53.688Z,0.80
2022-10-09T12:17:58.911Z,0.70
2022-10-09T12:19:29.299Z,0.70
2022-10-09T12:20:45.085Z,0.70
2022-10-09T12:21:54.740Z,0.65
2022-10-09T12:23:25.004Z,0.88
2022-10-09T12:24:33.644Z,0.63
2022-10-09T12:25:45.079Z,0.70
2022-10-09T12:26:50.129Z,0.80
2022-10-09T12:27:57.753Z,1.05
2022-10-09T12:29:02.030Z,0.70
2022-10-09T12:30:20.738Z,0.70
2022-10-09T12:31:36.918Z,0.55
2022-10-09T12:32:55.435Z,0.80
2022-10-09T12:34:29.378Z,0.60
2022-10-09T12:35:39.869Z,0.70
2022-10-09T12:36:47.058Z,0.60
2022-10-09T12:37:51.589Z,0.70
2022-10-09T12:38:55.386Z,0.40
2022-10-09T12:40:14.441Z,0.50
2022-10-09T12:41:32.671Z,0.63
2022-10-09T12:42:35.150Z,0.63
2022-10-09T12:43:38.643Z,0.70
2022-10-09T12:44:40.677Z,0.60
2022-10-09T12:45:45.502Z,0.60
2022-10-09T12:46:51.608Z,0.57
2022-10-09T12:47:55.243Z,0.40
2022-10-09T12:48:58.989Z,0.60
2022-10-09T12:50:26.244Z,0.50
2022-10-09T12:51:32.943Z,0.90
2022-10-09T12:52:36.591Z,0.70
2022-10-09T12:53:50.477Z,0.60
2022-10-09T12:54:53.702Z,0.40
2022-10-09T12:56:00.836Z,0.40
2022-10-09T12:57:05.655Z,0.70
2022-10-09T12:58:15.543Z,0.70
2022-10-09T12:59:18.636Z,0.55
2022-10-09T13:00:22.141Z,0.50
2022-10-09T13:01:26.227Z,0.52
2022-10-09T13:02:29.201Z,0.60
2022-10-09T13:03:43.942Z,0.30
2022-10-09T13:04:58.427Z,0.40
2022-10-09T13:06:02.047Z,0.40
2022-10-09T13:07:14.871Z,0.40
2022-10-09T13:08:29.260Z,0.52
2022-10-09T13:09:39.686Z,0.93
2022-10-09T13:10:41.677Z,0.57
2022-10-09T13:11:46.060Z,0.63
2022-10-09T13:12:54.116Z,0.50
2022-10-09T13:13:56.043Z,0.50
2022-10-09T13:15:07.281Z,0.50
2022-10-09T13:16:10.835Z,0.50
2022-10-09T13:18:34.489Z,0.50
2022-10-09T13:19:37.331Z,0.70
2022-10-09T13:20:39.351Z,0.47
2022-10-09T13:21:41.165Z,0.65
2022-10-09T13:23:04.709Z,0.60
2022-10-09T13:24:11.339Z,0.40
2022-10-09T13:25:13.333Z,0.50
2022-10-09T13:26:26.210Z,0.50
2022-10-09T13:27:38.102Z,0.50
2022-10-09T13:28:40.366Z,0.52
2022-10-09T13:29:43.538Z,0.50
2022-10-09T13:30:45.660Z,0.35
2022-10-09T13:31:47.813Z,0.50
2022-10-09T13:32:50.172Z,0.40
2022-10-09T13:33:52.351Z,0.60
2022-10-09T13:34:58.297Z,0.30
2022-10-09T13:36:00.214Z,0.50
2022-10-09T13:37:02.300Z,0.45
2022-10-09T13:38:04.124Z,0.50
2022-10-09T13:39:05.982Z,0.57
2022-10-09T13:40:11.837Z,0.52
2022-10-09T13:41:17.904Z,0.43
2022-10-09T13:42:21.972Z,0.60
2022-10-09T13:43:29.260Z,0.50
2022-10-09T13:44:31.300Z,0.40
2022-10-09T13:45:33.241Z,0.57
2022-10-09T13:46:35.194Z,0.57
2022-10-09T13:47:37.071Z,0.57
2022-10-09T13:48:39.659Z,0.60
2022-10-09T13:49:41.574Z,0.30
2022-10-09T13:50:43.421Z,0.57
2022-10-09T13:51:45.265Z,0.43
2022-10-09T13:52:47.543Z,0.55
2022-10-09T13:53:50.379Z,0.50
2022-10-09T13:54:52.533Z,0.60
2022-10-09T13:56:00.018Z,0.55
2022-10-09T13:57:03.824Z,0.57
2022-10-09T13:58:05.734Z,0.70
2022-10-09T13:59:07.598Z,0.60
2022-10-09T14:00:10.265Z,0.50
2022-10-09T14:01:12.157Z,0.38
2022-10-09T14:02:14.117Z,0.40
2022-10-09T14:03:16.790Z,0.55
2022-10-09T14:04:19.002Z,0.40
2022-10-09T14:05:21.773Z,0.50
2022-10-09T14:06:23.664Z,0.50
2022-10-09T14:07:25.678Z,0.85
2022-10-09T14:08:27.572Z,0.38
2022-10-09T14:09:29.738Z,0.60
2022-10-09T14:10:31.444Z,0.70
2022-10-09T14:11:34.223Z,0.60
2022-10-09T14:12:36.180Z,0.40
2022-10-09T14:13:38.036Z,0.50
2022-10-09T14:14:39.895Z,0.55
2022-10-09T14:15:42.300Z,0.40
2022-10-09T14:16:44.282Z,0.68
2022-10-09T14:17:46.466Z,0.50
2022-10-09T14:18:48.485Z,0.50
2022-10-09T14:19:50.310Z,0.55
2022-10-09T14:20:52.035Z,0.57
2022-10-09T14:21:55.509Z,0.40
2022-10-09T14:22:57.476Z,0.70
2022-10-09T14:24:01.950Z,0.47
2022-10-09T14:25:04.387Z,0.50
2022-10-09T14:26:07.303Z,0.50
2022-10-09T14:27:09.213Z,0.95
2022-10-09T14:28:11.062Z,0.63
2022-10-09T14:29:12.950Z,0.63
2022-10-09T14:30:15.071Z,0.98
2022-10-09T14:31:19.640Z,0.73
2022-10-09T14:32:21.407Z,0.70
2022-10-09T14:33:23.903Z,0.95
2022-10-09T14:34:25.764Z,0.90
2022-10-09T14:35:27.625Z,1.05
2022-10-09T14:36:29.558Z,0.80
2022-10-09T14:37:43.827Z,0.90
2022-10-09T14:38:47.046Z,1.17
2022-10-09T14:39:48.915Z,1.40
2022-10-09T14:40:50.979Z,1.60
2022-10-09T14:41:52.987Z,1.73
2022-10-09T14:42:54.824Z,2.00
2022-10-09T14:43:59.893Z,1.67
2022-10-09T14:45:11.860Z,2.33
2022-10-09T14:46:20.830Z,2.80
2022-10-09T14:50:40.887Z,2.60
2022-10-09T14:51:43.776Z,2.65
2022-10-09T14:52:45.674Z,1.20
2022-10-09T14:53:48.537Z,1.17
2022-10-09T14:54:50.440Z,1.80
2022-10-09T14:55:52.304Z,1.42
2022-10-09T14:56:54.901Z,1.40
2022-10-09T14:57:57.127Z,1.50
2022-10-09T14:59:06.149Z,1.60
2022-10-09T15:00:08.949Z,1.58
2022-10-09T15:01:17.780Z,1.77
2022-10-09T15:02:20.774Z,1.40